createdAt,value
2019-01-10T00:03:35.335Z,100235.07
2019-01-10T00:08:40.311Z,100241.33
2019-01-10T00:13:44.775Z,100240.69
2019-01-10T00:18:49.831Z,100250.89
2019-01-10T00:23:54.296Z,100251.38
2019-01-10T00:28:58.777Z,100246.66
2019-01-10T00:34:03.246Z,100242.43
2019-01-10T00:39:08.715Z,100240.74
2019-01-10T00:44:13.143Z,100240.06
2019-01-10T00:49:17.973Z,100243.22
2019-01-10T00:54:22.524Z,100253.55
2019-01-10T00:59:28.428Z,100247.53
2019-01-10T01:04:33.041Z,100253.65
2019-01-10T01:09:37.762Z,100258.98
2019-01-10T01:14:42.172Z,100274.62
2019-01-10T01:19:47.029Z,100274.47
2019-01-10T01:24:51.365Z,100277.23
2019-01-10T01:29:55.874Z,100275.92
2019-01-10T01:35:01.553Z,100282.24
2019-01-10T01:40:07.510Z,100286.22
2019-01-10T01:45:12.263Z,100292.27
2019-01-10T01:50:19.016Z,100291.70
2019-01-10T01:55:23.808Z,100285.97
2019-01-10T02:00:28.192Z,100298.94
2019-01-10T02:05:32.616Z,100304.36
2019-01-10T02:10:37.561Z,100306.89
2019-01-10T02:15:41.930Z,100306.84
2019-01-10T02:20:46.626Z,100303.39
2019-01-10T02:25:51.145Z,100305.58
2019-01-10T02:30:55.447Z,100311.45
2019-01-10T02:35:59.807Z,100308.94
2019-01-10T02:41:04.089Z,100311.46
2019-01-10T02:46:10.263Z,100307.97
2019-01-10T02:51:14.914Z,100311.16
2019-01-10T02:56:19.669Z,100305.63
2019-01-10T03:01:24.072Z,100312.27
2019-01-10T03:06:28.492Z,100317.33
2019-01-10T03:11:33.218Z,100317.58
2019-01-10T03:16:38.407Z,100306.36
2019-01-10T03:27:49.836Z,100306.27
2019-01-10T03:32:55.330Z,100306.69
2019-01-10T03:44:51.951Z,100298.64
2019-01-10T03:50:41.507Z,100292.80
2019-01-10T04:01:42.132Z,100284.08
2019-01-10T04:06:50.210Z,100282.96
2019-01-10T04:12:40.046Z,100277.86
2019-01-10T04:23:40.053Z,100293.01
2019-01-10T04:28:47.067Z,100294.66
2019-01-10T04:39:50.490Z,100296.41
2019-01-10T04:44:57.606Z,100290.39
2019-01-10T04:50:03.801Z,100294.66
2019-01-10T04:55:09.109Z,104869.41
2019-01-10T05:00:27.657Z,106367.95
2019-01-10T05:05:32.305Z,105297.55
2019-01-10T05:10:37.110Z,107127.72
2019-01-10T05:15:41.619Z,108642.20
2019-01-10T05:20:46.806Z,109794.06
2019-01-10T05:25:51.305Z,110095.26
2019-01-10T05:30:55.842Z,110173.18
2019-01-10T05:36:00.485Z,110043.34
2019-01-10T05:41:04.918Z,105371.48
2019-01-10T05:46:10.492Z,104616.28
2019-01-10T05:51:15.423Z,103223.92
2019-01-10T05:56:20.011Z,101129.20
2019-01-10T06:01:33.637Z,99873.56
2019-01-10T06:06:38.013Z,99309.93
2019-01-10T06:11:42.302Z,99337.90
2019-01-10T06:16:46.686Z,99467.70
2019-01-10T06:21:55.710Z,99534.27
2019-01-10T06:27:00.374Z,99535.14
2019-01-10T06:32:04.895Z,99648.06
2019-01-10T06:37:09.352Z,99184.63
2019-01-10T06:42:14.000Z,98959.06
2019-01-10T06:47:18.622Z,98705.18
2019-01-10T06:52:22.971Z,98451.22
2019-01-10T06:57:27.591Z,98222.70
2019-01-10T07:02:32.449Z,98094.05
2019-01-10T07:07:37.078Z,97989.72
2019-01-10T07:12:44.972Z,97918.63
2019-01-10T07:18:31.380Z,97977.62
2019-01-10T07:23:41.318Z,98184.59
2019-01-10T07:28:51.529Z,98450.12
2019-01-10T07:34:03.242Z,98646.97
2019-01-10T07:39:16.929Z,98847.81
2019-01-10T07:44:28.540Z,98998.76
2019-01-10T07:49:32.698Z,99210.98
2019-01-10T07:54:36.877Z,99369.16
2019-01-10T07:59:40.955Z,99536.89
2019-01-10T08:04:44.241Z,99660.58
2019-01-10T08:09:48.603Z,99809.13
2019-01-10T08:14:55.826Z,99924.81
2019-01-10T08:20:16.938Z,100007.18
2019-01-10T08:25:21.369Z,100082.02
2019-01-10T08:30:40.023Z,100195.56
2019-01-10T08:36:07.242Z,100270.75
2019-01-10T08:41:13.882Z,100330.88
2019-01-10T08:46:23.171Z,100429.94
2019-01-10T08:51:42.567Z,100537.72
2019-01-10T08:58:13.317Z,100632.89
2019-01-10T10:57:12.297Z,101669.03
2019-01-10T12:01:06.176Z,-17811.75
2019-01-10T12:06:10.532Z,-17808.15
2019-01-10T12:11:14.959Z,-17802.20
2019-01-10T12:16:28.311Z,-17804.70
2019-01-10T12:21:25.502Z,-17800.63
2019-01-10T12:27:07.835Z,-17800.32
2019-01-10T12:33:22.179Z,-9936.34
2019-01-10T12:43:43.448Z,1108.50
2019-01-10T12:49:23.107Z,-1402.03
2019-01-10T12:59:44.162Z,-319.00
2019-01-10T13:04:48.231Z,3525.10
2019-01-10T13:09:52.365Z,4675.82
2019-01-10T13:14:56.501Z,-9943.83
2019-01-10T13:20:00.789Z,-5160.80
2019-01-10T13:25:06.127Z,-6304.39
2019-01-10T13:30:20.586Z,-7962.20
2019-01-10T13:35:24.782Z,-8590.41
2019-01-10T13:40:29.107Z,-9818.98
2019-01-10T13:45:33.286Z,1296.86
2019-01-10T13:50:37.597Z,-6416.96
2019-01-10T13:55:43.564Z,-14632.98
2019-01-10T14:00:47.812Z,-13947.09
2019-01-10T14:05:52.025Z,-15319.57
2019-01-10T14:10:56.179Z,-17075.37
2019-01-10T14:16:00.424Z,-16821.79
2019-01-10T14:21:04.536Z,-15820.92
2019-01-10T14:26:08.604Z,-16555.06
2019-01-10T14:31:12.900Z,-16404.70
2019-01-10T14:36:16.888Z,-15470.28
2019-01-10T14:41:21.030Z,-17273.44
2019-01-10T14:46:25.138Z,-17341.57
2019-01-10T14:51:30.064Z,-17210.53
2019-01-10T14:56:34.256Z,-17791.07
2019-01-10T15:01:38.561Z,-17793.74
2019-01-10T15:06:42.769Z,-17794.83
2019-01-10T15:11:47.287Z,-17793.89
2019-01-10T15:16:51.349Z,-17792.17
2019-01-10T15:21:55.360Z,-17791.23
2019-01-10T15:26:59.269Z,-17793.11
2019-01-10T15:32:03.191Z,-17794.52
2019-01-10T15:37:07.201Z,-17795.31
2019-01-10T15:42:11.164Z,-17788.57
2019-01-10T15:47:19.781Z,-17784.96
2019-01-10T15:52:20.914Z,-17780.27
2019-01-10T15:57:24.868Z,-17783.87
2019-01-10T16:02:28.754Z,-17785.90
2019-01-10T16:07:34.152Z,-17783.87
2019-01-10T16:12:38.432Z,-17781.52
2019-01-10T16:17:42.596Z,-17783.09
2019-01-10T16:22:46.888Z,-17783.09
2019-01-10T16:27:50.838Z,-17777.61
2019-01-10T16:32:54.805Z,-17770.55
2019-01-10T16:37:58.816Z,-17772.43
2019-01-10T16:43:02.857Z,-17776.82
2019-01-10T16:48:06.878Z,-17777.76
2019-01-10T16:53:11.108Z,-17783.40
2019-01-10T16:58:15.285Z,-17777.14
2019-01-10T17:03:19.169Z,-17780.74
2019-01-10T17:08:23.259Z,-17779.95
2019-01-10T17:13:27.195Z,-17781.68
2019-01-10T17:18:31.099Z,-17783.40
2019-01-10T17:23:35.073Z,-17784.81
2019-01-10T17:28:38.952Z,-17787.32
2019-01-10T17:33:46.315Z,-17787.63
2019-01-10T17:38:50.384Z,-17767.97
2019-01-10T17:43:54.588Z,-17790.92
2019-01-10T17:48:58.590Z,-13971.47
2019-01-10T17:54:02.644Z,-9858.04
2019-01-10T17:59:06.531Z,-8407.90
2019-01-10T18:04:10.419Z,-14407.77
2019-01-10T18:09:14.307Z,-3572.32
2019-01-10T18:14:18.231Z,25.59
2019-01-10T18:19:22.330Z,-963.01
2019-01-10T18:24:26.362Z,1033.57
2019-01-10T18:29:33.124Z,4601.15
2019-01-10T18:34:36.071Z,5216.30
2019-01-10T18:39:39.850Z,8427.07
2019-01-10T18:44:46.241Z,6485.30
2019-01-10T18:49:50.202Z,9039.03
2019-01-10T18:54:59.979Z,17358.66
2019-01-10T19:00:00.069Z,21371.40
2019-01-10T19:05:04.297Z,25224.75
2019-01-10T19:10:08.648Z,25287.09
2019-01-10T19:15:12.671Z,23870.14
2019-01-10T19:20:18.943Z,27676.48
2019-01-10T19:25:22.912Z,21178.43
2019-01-10T19:30:29.373Z,28888.95
2019-01-10T19:35:33.379Z,31361.23
2019-01-10T19:40:37.287Z,30350.11
2019-01-10T19:45:41.251Z,34498.92
2019-01-10T19:50:45.264Z,37652.55
2019-01-10T19:55:49.215Z,40425.06
2019-01-10T20:00:55.573Z,48176.37
2019-01-10T20:05:59.658Z,39119.36
2019-01-10T20:11:03.556Z,50065.34
2019-01-10T20:16:07.712Z,47111.83
2019-01-10T20:21:11.520Z,50690.93
2019-01-10T20:26:15.371Z,52219.34
2019-01-10T20:31:19.220Z,54461.73
2019-01-10T20:36:23.136Z,59355.96
2019-01-10T20:41:26.962Z,60329.45
2019-01-10T20:46:30.784Z,61271.73
2019-01-10T20:51:34.604Z,62553.22
2019-01-10T20:56:38.363Z,65278.43
2019-01-10T21:01:42.120Z,69061.34
2019-01-10T21:06:46.839Z,71862.84
2019-01-10T21:11:51.630Z,72083.49
2019-01-10T21:16:55.795Z,71776.47
2019-01-10T21:21:59.860Z,73929.72
2019-01-10T21:27:03.912Z,75871.00
2019-01-10T21:32:08.203Z,71796.52
2019-01-10T21:37:12.394Z,74353.02
2019-01-10T21:42:16.495Z,36709.78
2019-01-10T21:47:20.600Z,40140.55
2019-01-10T21:52:24.635Z,43274.62
2019-01-10T21:57:30.538Z,40989.27
2019-01-10T22:02:35.857Z,38116.96
2019-01-10T22:07:40.169Z,35430.41
2019-01-10T22:12:44.093Z,34944.63
2019-01-10T22:17:48.164Z,29776.76
2019-01-10T22:22:52.128Z,27604.52
2019-01-10T22:27:57.359Z,28741.95
2019-01-10T22:33:01.511Z,21660.84
2019-01-10T22:38:05.606Z,22252.44
2019-01-10T22:43:09.602Z,16336.24
2019-01-10T22:48:13.545Z,12091.27
2019-01-10T22:53:17.677Z,13279.12
2019-01-10T22:58:21.698Z,9500.19
2019-01-10T23:03:25.813Z,4728.04
2019-01-10T23:08:29.837Z,-3112.84
2019-01-10T23:13:33.970Z,-5100.30
2019-01-10T23:18:41.970Z,-9915.50
2019-01-10T23:23:45.938Z,-13241.19
2019-01-10T23:28:50.024Z,-13390.96
2019-01-10T23:33:55.057Z,-13390.96
2019-01-10T23:39:21.750Z,-13390.96
2019-01-10T23:44:25.659Z,-13390.96
2019-01-10T23:49:29.692Z,-13390.96
2019-01-10T23:54:33.571Z,-13390.96
2019-01-10T23:59:37.621Z,-13390.96
